createdAt,value
2023-04-06T00:02:08.387Z,65.45
2023-04-06T00:05:47.583Z,65.76
2023-04-06T00:09:23.928Z,65.97
2023-04-06T00:13:01.576Z,65.61
2023-04-06T00:16:39.331Z,65.43
2023-04-06T00:20:17.111Z,65.63
2023-04-06T00:24:13.371Z,66.13
2023-04-06T00:27:55.097Z,66.20
2023-04-06T00:31:17.680Z,66.44
2023-04-06T00:34:55.665Z,66.56
2023-04-06T00:38:51.895Z,66.07
2023-04-06T00:42:33.533Z,66.05
2023-04-06T00:45:56.192Z,65.58
2023-04-06T00:49:34.722Z,65.55
2023-04-06T00:53:11.291Z,65.57
2023-04-06T00:57:07.747Z,66.00
2023-04-06T01:00:30.013Z,66.21
2023-04-06T01:04:07.873Z,66.35
2023-04-06T01:07:45.787Z,66.25
2023-04-06T01:11:41.880Z,65.99
2023-04-06T01:15:26.160Z,66.00
2023-04-06T01:18:48.471Z,65.88
2023-04-06T01:22:26.360Z,66.16
2023-04-06T01:26:03.761Z,66.20
2023-04-06T01:30:00.594Z,66.42
2023-04-06T01:33:33.609Z,66.03
2023-04-06T01:37:11.572Z,66.17
2023-04-06T01:40:48.915Z,66.55
2023-04-06T01:44:45.929Z,66.13
2023-04-06T01:48:10.504Z,66.23
2023-04-06T01:51:47.966Z,66.95
2023-04-06T01:55:44.644Z,67.72
2023-04-06T01:59:20.653Z,67.85
2023-04-06T02:03:32.016Z,68.05
2023-04-06T02:07:00.656Z,67.91
2023-04-06T02:10:38.166Z,68.14
2023-04-06T02:14:35.158Z,68.31
2023-04-06T02:17:58.515Z,68.68
2023-04-06T02:21:54.687Z,68.80
2023-04-06T02:25:17.023Z,68.69
2023-04-06T02:28:54.782Z,68.90
2023-04-06T02:32:32.307Z,68.56
2023-04-06T02:36:10.412Z,68.58
2023-04-06T02:40:07.353Z,68.18
2023-04-06T02:43:48.845Z,68.21
2023-04-06T02:47:18.377Z,71.56
2023-04-06T02:50:56.689Z,75.94
2023-04-06T02:54:52.629Z,73.45
2023-04-06T02:58:39.678Z,71.80
2023-04-06T03:02:02.286Z,71.21
2023-04-06T03:06:00.141Z,71.48
2023-04-06T03:09:44.868Z,70.87
2023-04-06T03:13:07.835Z,70.48
2023-04-06T03:17:04.023Z,71.12
2023-04-06T03:20:26.400Z,71.51
2023-04-06T03:24:04.337Z,71.52
2023-04-06T03:28:00.592Z,71.15
2023-04-06T03:31:23.181Z,71.64
2023-04-06T03:35:19.735Z,71.34
2023-04-06T03:38:41.932Z,73.04
2023-04-06T03:42:19.744Z,73.09
2023-04-06T03:46:16.104Z,72.81
2023-04-06T03:49:40.586Z,72.36
2023-04-06T03:53:16.941Z,72.17
2023-04-06T03:56:54.882Z,73.34
2023-04-06T04:00:33.832Z,75.15
2023-04-06T04:04:11.517Z,74.11
2023-04-06T04:07:47.612Z,73.57
2023-04-06T04:11:44.391Z,73.55
2023-04-06T04:15:07.552Z,73.28
2023-04-06T04:18:46.452Z,73.36
2023-04-06T04:22:41.216Z,73.24
2023-04-06T04:26:03.883Z,73.05
2023-04-06T04:29:41.188Z,73.53
2023-04-06T04:33:19.034Z,73.12
2023-04-06T04:37:15.336Z,72.69
2023-04-06T04:41:02.785Z,73.74
2023-04-06T04:44:26.607Z,74.65
2023-04-06T04:48:23.356Z,73.33
2023-04-06T04:51:53.626Z,72.97
2023-04-06T04:55:49.622Z,73.01
2023-04-06T04:59:13.747Z,73.27
2023-04-06T05:02:51.734Z,74.02
2023-04-06T05:06:29.023Z,78.06
2023-04-06T05:23:21.911Z,76.84
2023-04-06T05:27:01.187Z,76.70
2023-04-06T05:30:57.252Z,77.37
2023-04-06T05:34:39.102Z,76.93
2023-04-06T05:38:02.835Z,76.76
2023-04-06T05:42:03.853Z,77.40
2023-04-06T05:45:53.202Z,77.66
2023-04-06T05:49:35.866Z,77.28
2023-04-06T05:53:17.848Z,77.68
2023-04-06T05:56:49.061Z,77.31
2023-04-06T06:00:27.289Z,77.69
2023-04-06T06:04:23.161Z,77.88
2023-04-06T06:08:07.071Z,77.60
2023-04-06T06:11:31.407Z,77.33
2023-04-06T06:15:09.172Z,77.41
2023-04-06T06:18:46.762Z,77.11
2023-04-06T06:22:43.051Z,77.13
2023-04-06T06:26:09.533Z,76.39
2023-04-06T06:29:47.216Z,76.74
2023-04-06T06:33:27.261Z,76.11
2023-04-06T06:37:04.690Z,75.28
2023-04-06T06:40:42.288Z,74.67
2023-04-06T06:44:38.485Z,74.46
2023-04-06T06:48:21.670Z,72.66
2023-04-06T06:52:05.029Z,72.22
2023-04-06T06:55:49.222Z,71.49
2023-04-06T06:59:32.745Z,71.76
2023-04-06T07:03:17.027Z,71.62
2023-04-06T07:06:41.775Z,69.31
2023-04-06T07:10:19.567Z,69.50
2023-04-06T07:14:16.590Z,68.06
2023-04-06T07:17:42.543Z,68.37
2023-04-06T07:21:18.296Z,67.45
2023-04-06T07:24:56.326Z,67.22
2023-04-06T07:28:34.024Z,66.45
2023-04-06T07:32:11.774Z,65.91
2023-04-06T07:35:49.088Z,65.81
2023-04-06T07:39:45.880Z,66.23
2023-04-06T07:43:29.642Z,65.11
2023-04-06T07:46:55.067Z,65.00
2023-04-06T07:50:32.722Z,64.01
2023-04-06T07:54:10.494Z,64.37
2023-04-06T07:57:47.548Z,64.31
2023-04-06T08:01:26.282Z,62.38
2023-04-06T08:05:02.819Z,62.08
2023-04-06T08:08:40.655Z,62.79
2023-04-06T08:12:18.160Z,61.97
2023-04-06T08:16:15.580Z,62.54
2023-04-06T08:19:40.000Z,62.53
2023-04-06T08:23:17.703Z,63.14
2023-04-06T08:27:15.035Z,62.07
2023-04-06T08:30:59.071Z,61.74
2023-04-06T08:34:43.637Z,61.71
2023-04-06T08:38:08.720Z,61.36
2023-04-06T08:42:04.563Z,60.56
2023-04-06T08:45:48.103Z,60.18
2023-04-06T08:49:13.834Z,59.65
2023-04-06T08:52:50.775Z,59.43
2023-04-06T08:56:29.292Z,60.04
2023-04-06T09:00:08.843Z,59.17
2023-04-06T09:03:44.208Z,57.93
2023-04-06T09:07:40.611Z,58.67
2023-04-06T09:11:23.695Z,58.72
2023-04-06T09:14:48.146Z,57.37
2023-04-06T09:18:32.818Z,57.21
2023-04-06T09:22:10.870Z,57.43
2023-04-06T09:25:41.011Z,57.70
2023-04-06T09:29:28.978Z,57.76
2023-04-06T09:32:58.413Z,57.75
2023-04-06T09:36:53.318Z,57.27
2023-04-06T09:40:39.911Z,57.05
2023-04-06T09:44:11.861Z,57.52
2023-04-06T09:47:47.985Z,57.48
2023-04-06T09:51:28.043Z,56.71
2023-04-06T09:55:42.272Z,57.37
2023-04-06T09:59:43.846Z,56.73
2023-04-06T10:04:09.328Z,57.22
2023-04-06T10:07:35.924Z,56.67
2023-04-06T10:11:12.078Z,55.08
2023-04-06T10:14:50.372Z,55.75
2023-04-06T10:18:28.035Z,55.43
2023-04-06T10:22:06.208Z,56.32
2023-04-06T10:25:57.989Z,56.38
2023-04-06T10:29:49.109Z,56.44
2023-04-06T10:33:17.339Z,56.36
2023-04-06T10:36:50.790Z,56.03
2023-04-06T10:40:28.924Z,56.58
2023-04-06T10:44:06.152Z,56.68
2023-04-06T10:47:43.740Z,57.05
2023-04-06T10:51:28.587Z,57.41
2023-04-06T10:55:00.483Z,57.66
2023-04-06T10:58:37.055Z,56.79
2023-04-06T11:02:23.810Z,56.92
2023-04-06T11:05:52.609Z,57.65
2023-04-06T11:09:32.645Z,58.15
2023-04-06T11:13:37.334Z,56.96
2023-04-06T11:17:01.636Z,56.67
2023-04-06T11:20:39.433Z,57.08
2023-04-06T11:24:21.343Z,57.27
2023-04-06T11:28:13.682Z,56.70
2023-04-06T11:32:04.527Z,56.99
2023-04-06T11:35:32.334Z,58.19
2023-04-06T11:39:07.971Z,58.31
2023-04-06T11:42:53.577Z,60.66
2023-04-06T11:46:21.873Z,59.91
2023-04-06T11:50:14.231Z,59.60
2023-04-06T11:53:49.051Z,60.64
2023-04-06T11:57:37.935Z,61.13
2023-04-06T12:01:06.031Z,62.46
2023-04-06T12:04:40.093Z,63.45
2023-04-06T12:08:17.391Z,64.15
2023-04-06T12:12:13.941Z,64.29
2023-04-06T12:15:38.267Z,63.74
2023-04-06T12:19:16.068Z,63.40
2023-04-06T12:22:53.225Z,64.77
2023-04-06T12:26:32.074Z,65.32
2023-04-06T12:30:09.445Z,65.64
2023-04-06T12:34:05.315Z,67.10
2023-04-06T12:37:30.388Z,69.35
2023-04-06T12:41:07.053Z,71.60
2023-04-06T12:45:03.897Z,71.30
2023-04-06T12:48:28.490Z,71.63
2023-04-06T12:52:24.734Z,71.28
2023-04-06T12:55:49.210Z,72.78
2023-04-06T12:59:27.016Z,73.62
2023-04-06T13:03:24.036Z,74.59
2023-04-06T13:06:48.339Z,76.10
2023-04-06T13:10:26.605Z,76.24
2023-04-06T13:14:03.677Z,76.30
2023-04-06T13:18:00.871Z,77.73
2023-04-06T13:21:44.169Z,78.46
2023-04-06T13:25:09.342Z,78.69
2023-04-06T13:28:46.795Z,80.96
2023-04-06T13:32:24.290Z,80.88
2023-04-06T13:36:01.975Z,82.89
2023-04-06T13:39:39.635Z,82.72
2023-04-06T13:43:20.200Z,82.72
2023-04-06T13:46:55.559Z,82.82
2023-04-06T13:50:33.763Z,83.89
2023-04-06T13:54:29.238Z,84.15
2023-04-06T13:57:53.672Z,83.43
2023-04-06T14:01:31.187Z,84.79
2023-04-06T14:05:09.584Z,84.68
2023-04-06T14:09:05.666Z,83.84
2023-04-06T14:12:30.200Z,85.87
2023-04-06T14:16:08.584Z,87.42
2023-04-06T14:19:45.488Z,87.28
2023-04-06T14:23:42.460Z,88.67
2023-04-06T14:27:07.400Z,88.27
2023-04-06T14:31:15.327Z,88.02
2023-04-06T14:34:39.924Z,89.02
2023-04-06T14:38:36.725Z,88.53
2023-04-06T14:42:20.328Z,88.06
2023-04-06T14:45:44.637Z,88.27
2023-04-06T14:49:41.142Z,88.90
2023-04-06T14:53:05.738Z,89.42
2023-04-06T14:56:44.079Z,91.44
2023-04-06T15:00:21.455Z,91.02
2023-04-06T15:03:58.458Z,91.02
2023-04-06T15:07:36.070Z,91.82
2023-04-06T15:11:14.352Z,91.71
2023-04-06T15:15:10.988Z,91.97
2023-04-06T15:18:36.322Z,91.66
2023-04-06T15:22:12.751Z,91.65
2023-04-06T15:25:50.734Z,91.84
2023-04-06T15:29:28.041Z,92.46
2023-04-06T15:33:08.102Z,92.02
2023-04-06T15:37:04.213Z,91.77
2023-04-06T15:40:28.395Z,91.84
2023-04-06T15:44:25.787Z,91.64
2023-04-06T15:48:09.276Z,92.11
2023-04-06T15:51:33.768Z,92.63
2023-04-06T15:55:11.028Z,92.80
2023-04-06T15:58:48.789Z,93.61
2023-04-06T16:02:27.032Z,94.74
2023-04-06T16:06:08.998Z,94.71
2023-04-06T16:10:00.624Z,95.33
2023-04-06T16:13:24.930Z,95.49
2023-04-06T16:17:21.232Z,95.05
2023-04-06T16:20:46.131Z,95.93
2023-04-06T16:24:41.899Z,96.02
2023-04-06T16:28:25.070Z,96.82
2023-04-06T16:31:49.306Z,97.19
2023-04-06T16:35:27.121Z,96.37
2023-04-06T16:39:23.244Z,96.70
2023-04-06T16:42:48.302Z,96.81
2023-04-06T16:46:35.903Z,97.47
2023-04-06T16:50:21.725Z,97.72
2023-04-06T16:53:47.924Z,98.07
2023-04-06T16:57:42.356Z,98.00
2023-04-06T17:01:07.225Z,96.99
2023-04-06T17:04:45.416Z,96.79
2023-04-06T17:08:42.609Z,95.90
2023-04-06T17:12:09.467Z,95.29
2023-04-06T17:15:45.520Z,95.04
2023-04-06T17:19:23.207Z,95.11
2023-04-06T17:23:00.928Z,95.36
2023-04-06T17:26:57.433Z,95.08
2023-04-06T17:30:22.382Z,95.27
2023-04-06T17:33:59.999Z,95.14
2023-04-06T17:37:56.376Z,95.10
2023-04-06T17:41:39.817Z,94.29
2023-04-06T17:45:04.376Z,94.82
2023-04-06T17:48:43.974Z,94.85
2023-04-06T17:52:19.472Z,94.56
2023-04-06T17:55:57.339Z,94.74
2023-04-06T17:59:35.354Z,94.21
2023-04-06T18:03:31.856Z,94.12
2023-04-06T18:06:56.802Z,93.93
2023-04-06T18:10:53.472Z,93.82
2023-04-06T18:14:19.006Z,93.68
2023-04-06T18:17:56.865Z,93.49
2023-04-06T18:21:53.280Z,93.30
2023-04-06T18:25:18.727Z,93.42
2023-04-06T18:28:56.045Z,93.78
2023-04-06T18:32:33.301Z,93.49
2023-04-06T18:36:30.766Z,93.89
2023-04-06T18:40:31.319Z,94.35
2023-04-06T18:44:14.621Z,94.18
2023-04-06T18:47:41.749Z,93.97
2023-04-06T18:51:41.354Z,94.78
2023-04-06T18:55:07.422Z,95.53
2023-04-06T18:59:02.345Z,95.19
2023-04-06T19:02:26.732Z,95.49
2023-04-06T19:06:07.845Z,95.62
2023-04-06T19:09:41.964Z,96.20
2023-04-06T19:13:38.505Z,97.17
2023-04-06T19:17:04.147Z,96.42
2023-04-06T19:20:40.928Z,96.28
2023-04-06T19:24:18.706Z,96.48
2023-04-06T19:27:56.712Z,96.53
2023-04-06T19:31:53.221Z,96.89
2023-04-06T19:35:17.961Z,97.12
2023-04-06T19:39:16.693Z,97.94
2023-04-06T19:42:41.646Z,97.61
2023-04-06T19:46:38.434Z,98.09
2023-04-06T19:50:23.297Z,98.01
2023-04-06T19:54:07.284Z,97.83
2023-04-06T19:57:51.792Z,98.13
2023-04-06T20:01:16.018Z,98.52
2023-04-06T20:04:53.502Z,97.85
2023-04-06T20:08:31.451Z,97.98
2023-04-06T20:12:09.214Z,98.49
2023-04-06T20:15:46.723Z,98.57
2023-04-06T20:19:24.528Z,98.58
2023-04-06T20:23:02.114Z,98.79
2023-04-06T20:26:40.318Z,99.71
2023-04-06T20:30:36.526Z,99.83
2023-04-06T20:34:01.611Z,99.35
2023-04-06T20:37:38.741Z,99.86
2023-04-06T20:41:16.565Z,99.85
2023-04-06T20:44:57.024Z,99.94
2023-04-06T20:48:33.597Z,100.00
2023-04-06T20:52:09.609Z,99.97
2023-04-06T20:56:05.739Z,100.00
2023-04-06T20:59:30.301Z,100.00
2023-04-06T21:03:27.124Z,99.99
2023-04-06T21:06:51.864Z,100.00
2023-04-06T21:10:48.344Z,99.98
2023-04-06T21:14:13.372Z,99.74
2023-04-06T21:17:51.229Z,99.71
2023-04-06T21:21:47.660Z,99.86
2023-04-06T21:25:31.814Z,99.62
2023-04-06T21:28:56.238Z,99.72
2023-04-06T21:32:34.720Z,99.46
2023-04-06T21:36:11.550Z,99.57
2023-04-06T21:39:49.148Z,99.90
2023-04-06T21:43:26.806Z,99.76
2023-04-06T21:47:04.670Z,99.64
2023-04-06T21:50:42.279Z,99.75
2023-04-06T21:54:19.860Z,99.53
2023-04-06T21:57:57.406Z,99.59
2023-04-06T22:01:56.658Z,99.66
2023-04-06T22:05:40.478Z,99.83
2023-04-06T22:09:05.659Z,99.67
2023-04-06T22:12:42.779Z,99.60
2023-04-06T22:16:20.146Z,99.97
2023-04-06T22:19:58.045Z,99.76
2023-04-06T22:23:36.087Z,99.60
2023-04-06T22:27:13.258Z,99.92
2023-04-06T22:30:50.838Z,99.78
2023-04-06T22:34:47.580Z,99.52
2023-04-06T22:38:30.442Z,99.45
2023-04-06T22:41:54.837Z,99.39
2023-04-06T22:45:32.189Z,99.36
2023-04-06T22:49:10.128Z,99.46
2023-04-06T22:52:47.741Z,99.19
2023-04-06T22:56:25.747Z,99.10
2023-04-06T23:00:24.266Z,99.04
2023-04-06T23:04:09.309Z,98.98
2023-04-06T23:07:52.648Z,99.15
2023-04-06T23:11:36.094Z,99.04
2023-04-06T23:15:00.523Z,98.81
2023-04-06T23:18:39.751Z,98.73
2023-04-06T23:22:34.651Z,98.64
2023-04-06T23:25:59.094Z,98.50
2023-04-06T23:29:57.036Z,99.31
2023-04-06T23:33:22.684Z,98.92
2023-04-06T23:37:03.214Z,99.09
2023-04-06T23:40:38.677Z,98.80
2023-04-06T23:44:34.724Z,98.76
2023-04-06T23:48:18.190Z,98.81
2023-04-06T23:52:01.918Z,98.37
2023-04-06T23:55:48.039Z,98.60
2023-04-06T23:59:12.258Z,98.50
